Paddockwood, Canada
Current Conditions -  °F | °C
As of 9:00 PM on Friday 24 Oct 2014 (Local Time) from CYPA Reporting Station
Few Clouds Few Clouds  
Wind Chill: 34°   Ceiling: Unl
Heat Index: 41°   Visibility: 15mi
Dew Point: 28°   Wind: 12mph
Humidity: 61%   Direction: 270°W
Pressure: 29.84"   Gusts: NA
Location:  53.5°N, 105.57°W
Report Text: CYPA 250300Z 27010KT 15SM FEW250 05/M02 A2984 RMK CI1 SLP121
Loading
Personal Weather Stations






























Interactive Weather Map
Tropical Storm Tracking
New forecast layout! Learn more

10-Day Weather Forecast

Advertisements
Track Severe Weather on mobile